Time;durP1;ratioP1;P1;durP2;ratioP2;P2;SDS_P1;SDS_P2;PMS_P1;PMS_P2;Temp;Humidity;BMP_temperature;BMP_pressure;BME280_temperature;BME280_humidity;BME280_pressure;Samples;Min_cycle;Max_cycle;Signal;HPM_P1;HPM_P2
2021/12/10 00:00:48;;;;;;;107.20;59.40;;;;;;;-0.87;100.00;98384.97;5052409;28;20457;-81
2021/12/10 00:03:21;;;;;;;110.35;58.00;;;;;;;-0.83;100.00;98386.56;5034678;28;20032;-81
2021/12/10 00:06:00;;;;;;;112.18;55.92;;;;;;;-0.82;100.00;98383.13;5052211;28;20043;-82
2021/12/10 00:08:30;;;;;;;116.78;60.45;;;;;;;-0.78;100.00;98395.81;5034990;28;20483;-81
2021/12/10 00:11:00;;;;;;;106.10;57.42;;;;;;;-0.80;100.00;98404.38;5052795;28;20488;-81
2021/12/10 00:13:26;;;;;;;108.35;56.17;;;;;;;-0.82;100.00;98401.88;5052575;28;20048;-81
2021/12/10 00:15:54;;;;;;;108.60;55.95;;;;;;;-0.85;100.00;98399.38;5052263;28;20057;-83
2021/12/10 00:18:21;;;;;;;121.18;65.90;;;;;;;-0.79;100.00;98395.88;5034397;28;20025;-84
2021/12/10 00:20:49;;;;;;;109.22;57.97;;;;;;;-0.91;100.00;98379.06;5033982;28;20074;-85
2021/12/10 00:23:18;;;;;;;116.22;58.97;;;;;;;-0.86;100.00;98384.91;5034466;28;20124;-84
2021/12/10 00:25:49;;;;;;;111.80;56.10;;;;;;;-0.89;100.00;98369.63;4974788;28;20050;-84
2021/12/10 00:28:34;;;;;;;;;;;;;;;-0.81;100.00;98369.47;4974912;28;20430;-84
2021/12/10 00:31:29;;;;;;;113.72;59.22;;;;;;;-0.80;100.00;98369.47;4974926;28;19909;-81
2021/12/10 00:34:22;;;;;;;108.90;59.63;;;;;;;-0.83;100.00;98356.75;4991034;28;20030;-82
2021/12/10 00:36:51;;;;;;;116.22;57.78;;;;;;;-0.82;100.00;98358.41;5003656;28;20030;-82
2021/12/10 00:39:22;;;;;;;114.13;59.13;;;;;;;-0.87;100.00;98341.50;5010093;28;20187;-80
2021/12/10 00:41:47;;;;;;;110.47;56.33;;;;;;;-0.82;100.00;98343.06;5009868;28;20475;-80
2021/12/10 00:44:13;;;;;;;103.20;55.88;;;;;;;-0.85;100.00;98329.50;5009664;28;20042;-80
2021/12/10 00:46:39;;;;;;;108.82;56.22;;;;;;;-0.87;100.00;98321.88;5009881;28;20038;-80
2021/12/10 00:49:05;;;;;;;108.32;58.55;;;;;;;-0.83;100.00;98331.19;5010026;28;20521;-79
2021/12/10 00:51:31;;;;;;;119.22;62.35;;;;;;;-0.73;100.00;98346.31;4992917;28;20044;-79
2021/12/10 00:53:57;;;;;;;112.70;60.45;;;;;;;-0.76;100.00;98342.97;4992859;28;20441;-79
2021/12/10 00:56:22;;;;;;;111.50;58.22;;;;;;;-0.82;100.00;98332.00;5032848;28;20044;-81
2021/12/10 00:58:48;;;;;;;119.28;62.15;;;;;;;-0.79;100.00;98332.78;5071716;28;20441;-83
2021/12/10 01:01:17;;;;;;;108.32;58.25;;;;;;;-0.77;100.00;98330.19;5071927;28;20028;-84
2021/12/10 01:03:55;;;;;;;116.18;60.35;;;;;;;-0.83;100.00;98303.06;5054084;28;20039;-83
2021/12/10 01:06:22;;;;;;;118.35;61.15;;;;;;;-0.72;100.00;98307.06;5054299;28;20025;-83
2021/12/10 01:08:55;;;;;;;118.75;61.03;;;;;;;-0.70;100.00;98301.06;5053361;28;20063;-84
2021/12/10 01:11:29;;;;;;;116.65;56.72;;;;;;;-0.66;100.00;98301.84;5053419;28;20415;-84
2021/12/10 01:14:02;;;;;;;114.07;58.95;;;;;;;-0.71;100.00;98294.28;5071857;28;20514;-83
2021/12/10 01:27:32;;;;;;;125.70;61.08;;;;;;;-0.70;100.00;98301.06;5071538;28;20047;-79
2021/12/10 01:30:05;;;;;;;123.05;63.63;;;;;;;-0.71;100.00;98284.06;5071051;28;20068;-79
2021/12/10 01:32:34;;;;;;;133.48;66.03;;;;;;;-0.64;100.00;98293.25;5053220;28;20025;-79
2021/12/10 01:34:59;;;;;;;124.85;67.25;;;;;;;-0.68;100.00;98283.97;5070963;28;20085;-79
2021/12/10 01:37:25;;;;;;;149.18;72.93;;;;;;;-0.64;100.00;98284.72;5035149;28;20376;-79
2021/12/10 01:39:52;;;;;;;140.52;70.20;;;;;;;-0.67;100.00;98283.09;5037083;28;20052;-80
2021/12/10 01:44:58;;;;;;;132.63;65.10;;;;;;;-0.81;100.00;98285.94;5054758;28;20036;-81
2021/12/10 01:47:33;;;;;;;134.18;65.32;;;;;;;-0.83;100.00;98266.44;5036989;28;20055;-80
2021/12/10 01:49:59;;;;;;;128.25;66.25;;;;;;;-0.83;100.00;98264.72;5036871;28;20033;-80
2021/12/10 01:52:26;;;;;;;128.75;65.78;;;;;;;-0.73;100.00;98273.00;5054835;28;20040;-80
2021/12/10 01:54:56;;;;;;;130.55;63.90;;;;;;;-0.71;100.00;98271.25;5054618;28;20056;-80
2021/12/10 01:57:26;;;;;;;144.55;66.70;;;;;;;-0.82;100.00;98242.53;5054338;28;20443;-80
2021/12/10 01:59:52;;;;;;;131.70;63.33;;;;;;;-0.82;100.00;98240.81;5054483;28;20028;-80
2021/12/10 02:02:23;;;;;;;126.03;63.30;;;;;;;-0.88;100.00;98233.31;5054540;28;20033;-81
2021/12/10 02:04:49;;;;;;;127.18;63.80;;;;;;;-0.69;100.00;98263.56;5036590;28;20043;-82
2021/12/10 02:07:18;;;;;;;132.27;64.32;;;;;;;-0.96;100.00;98217.31;5037004;28;20510;-83
2021/12/10 02:09:44;;;;;;;139.38;67.65;;;;;;;-0.66;100.00;98246.41;5036979;28;20362;-83
2021/12/10 02:12:10;;;;;;;132.23;66.53;;;;;;;-0.66;100.00;98243.03;5054404;28;20079;-83
2021/12/10 02:14:35;;;;;;;136.50;65.32;;;;;;;-0.66;100.00;98248.97;5036320;28;20055;-82
2021/12/10 02:17:01;;;;;;;130.00;63.60;;;;;;;-0.77;100.00;98226.22;5054185;28;20045;-82
2021/12/10 02:19:28;;;;;;;141.05;65.50;;;;;;;-0.79;100.00;98238.22;5036830;28;20021;-82
2021/12/10 02:21:55;;;;;;;124.40;63.25;;;;;;;-0.70;100.00;98252.50;5036509;28;20149;-80
2021/12/10 02:24:21;;;;;;;136.30;64.03;;;;;;;-0.62;100.00;98252.31;5036215;28;20405;-80
2021/12/10 02:26:54;;;;;;;136.70;64.10;;;;;;;-0.77;100.00;98231.31;5011250;28;20141;-80
2021/12/10 02:29:23;;;;;;;116.05;59.03;;;;;;;-0.72;100.00;98240.59;5012125;28;20033;-80
2021/12/10 02:31:49;;;;;;;124.13;60.10;;;;;;;-0.73;100.00;98239.75;5011634;28;20052;-83
2021/12/10 02:34:14;;;;;;;127.60;63.25;;;;;;;-0.71;100.00;98225.25;5012250;28;20029;-80
2021/12/10 02:36:42;;;;;;;136.95;66.07;;;;;;;-0.64;100.00;98228.47;5024071;28;20061;-82
2021/12/10 02:39:10;;;;;;;134.43;65.20;;;;;;;-0.82;100.00;98209.31;5031098;28;20035;-82
2021/12/10 02:41:36;;;;;;;138.07;66.95;;;;;;;-0.71;100.00;98219.28;5018897;28;20142;-79
2021/12/10 02:44:03;;;;;;;130.82;63.00;;;;;;;-0.56;100.00;98234.25;5011271;28;20096;-79
2021/12/10 02:46:29;;;;;;;138.43;66.00;;;;;;;-0.60;100.00;98240.31;5011542;28;20111;-79
2021/12/10 02:48:55;;;;;;;133.30;65.10;;;;;;;-0.65;100.00;98222.53;4993569;28;20068;-78
2021/12/10 02:51:21;;;;;;;141.57;68.15;;;;;;;-0.59;100.00;98224.94;4994883;28;20571;-78
2021/12/10 02:53:47;;;;;;;125.47;64.05;;;;;;;-0.61;100.00;98223.28;4994674;28;20036;-79
2021/12/10 02:56:17;;;;;;;136.75;68.38;;;;;;;-0.60;100.00;98238.59;4994820;28;20132;-79
2021/12/10 02:58:44;;;;;;;;;;;;;;;-0.55;100.00;98257.25;4995179;28;20070;-79
2021/12/10 03:01:12;;;;;;;137.32;66.55;;;;;;;-0.69;100.00;98232.88;4994537;28;19910;-78
2021/12/10 03:03:40;;;;;;;135.38;64.30;;;;;;;-0.59;100.00;98258.19;5005663;28;20033;-79
2021/12/10 03:06:11;;;;;;;138.88;68.93;;;;;;;-0.73;100.00;98224.44;5035032;28;20123;-79
2021/12/10 03:08:39;;;;;;;133.35;67.18;;;;;;;-0.73;100.00;98221.88;5035234;28;20031;-79
2021/12/10 03:11:04;;;;;;;129.45;67.88;;;;;;;-0.65;100.00;98252.38;5052748;28;20020;-79
2021/12/10 03:13:30;;;;;;;136.70;68.32;;;;;;;-0.66;100.00;98236.19;5053158;28;20508;-79
2021/12/10 03:15:55;;;;;;;127.38;66.80;;;;;;;-0.66;100.00;98212.34;5052703;28;20045;-79
2021/12/10 03:18:21;;;;;;;121.70;63.67;;;;;;;-0.61;100.00;98225.84;5052907;28;20423;-79
2021/12/10 03:20:47;;;;;;;136.18;67.22;;;;;;;-0.61;100.00;98234.34;5052881;28;20071;-79
2021/12/10 03:23:13;;;;;;;135.65;67.18;;;;;;;-0.63;100.00;98238.69;5053041;28;20536;-79
2021/12/10 03:25:40;;;;;;;137.30;66.10;;;;;;;-0.66;100.00;98228.53;5034954;28;20388;-78
2021/12/10 03:28:06;;;;;;;132.07;64.88;;;;;;;-0.61;100.00;98224.13;5052669;28;20028;-79
2021/12/10 03:30:35;;;;;;;133.30;66.03;;;;;;;-0.66;100.00;98214.91;5052886;28;20040;-79
2021/12/10 03:33:01;;;;;;;134.48;67.93;;;;;;;-0.65;100.00;98227.63;5034622;28;20021;-79
2021/12/10 03:35:31;;;;;;;134.13;72.32;;;;;;;-0.71;100.00;98211.63;5052666;28;20055;-79
2021/12/10 03:37:59;;;;;;;138.90;72.28;;;;;;;-0.67;100.00;98218.34;5034382;28;20021;-78
2021/12/10 03:40:24;;;;;;;136.85;69.28;;;;;;;-0.66;100.00;98231.09;5052466;28;20032;-79
2021/12/10 03:42:53;;;;;;;149.48;75.20;;;;;;;-0.70;100.00;98228.63;5052258;28;20032;-78
2021/12/10 03:45:18;;;;;;;138.70;67.20;;;;;;;-0.66;100.00;98232.81;5034635;28;20029;-79
2021/12/10 03:47:45;;;;;;;134.88;66.32;;;;;;;-0.79;100.00;98211.81;5052338;28;20052;-81
2021/12/10 03:50:19;;;;;;;137.80;73.32;;;;;;;-0.74;100.00;98219.38;5052324;28;20036;-81
2021/12/10 03:52:45;;;;;;;135.30;66.88;;;;;;;-0.69;100.00;98215.81;5034359;28;20032;-80
2021/12/10 03:55:10;;;;;;;131.90;66.75;;;;;;;-0.68;100.00;98204.69;5053213;28;20036;-84
2021/12/10 03:57:36;;;;;;;133.05;65.35;;;;;;;-0.70;100.00;98197.97;5054434;28;20028;-83
2021/12/10 04:00:03;;;;;;;134.70;65.47;;;;;;;-0.63;100.00;98208.00;5071885;28;20116;-80
2021/12/10 04:02:28;;;;;;;140.88;68.82;;;;;;;-0.65;100.00;98198.69;5071917;28;20036;-81
2021/12/10 04:04:54;;;;;;;133.60;66.85;;;;;;;-0.62;100.00;98217.34;5071941;28;20024;-81
2021/12/10 04:07:23;;;;;;;147.35;71.05;;;;;;;-0.60;100.00;98213.03;5072262;28;20082;-82
2021/12/10 04:09:49;;;;;;;142.40;69.50;;;;;;;-0.62;100.00;98196.06;5071771;28;20025;-81
2021/12/10 04:12:17;;;;;;;143.00;69.90;;;;;;;-0.70;100.00;98188.56;5054133;28;20407;-80
2021/12/10 04:14:44;;;;;;;151.93;72.70;;;;;;;-0.65;100.00;98180.78;5071910;28;20039;-82
2021/12/10 04:17:10;;;;;;;142.27;72.10;;;;;;;-0.61;100.00;98183.22;5053867;28;20041;-82
2021/12/10 04:19:37;;;;;;;146.88;71.65;;;;;;;-0.60;100.00;98184.88;5053636;28;20024;-82
2021/12/10 04:22:06;;;;;;;133.55;66.43;;;;;;;-0.57;100.00;98184.81;5053618;28;20082;-82
2021/12/10 04:24:34;;;;;;;142.68;70.05;;;;;;;-0.58;100.00;98172.91;5071706;28;20029;-81
2021/12/10 04:27:02;;;;;;;142.27;70.20;;;;;;;-0.58;100.00;98178.03;5053651;28;20036;-82
2021/12/10 04:29:28;;;;;;;145.05;71.45;;;;;;;-0.62;100.00;98166.22;5072518;28;20029;-82
2021/12/10 04:31:56;;;;;;;140.18;69.18;;;;;;;-0.67;100.00;98145.03;5054514;28;20094;-85
2021/12/10 04:34:22;;;;;;;159.40;78.28;;;;;;;-0.51;100.00;98165.91;5053714;28;20127;-84
2021/12/10 04:36:50;;;;;;;149.68;73.07;;;;;;;-0.56;100.00;98166.03;5071824;28;20021;-84
2021/12/10 04:39:15;;;;;;;151.80;76.65;;;;;;;-0.60;100.00;98154.22;5054276;28;20063;-85
2021/12/10 04:41:41;;;;;;;141.00;66.22;;;;;;;-0.55;100.00;98141.28;5054988;28;20068;-85
2021/12/10 04:44:07;;;;;;;160.38;82.03;;;;;;;-0.51;100.00;98150.56;5053976;28;20025;-82
2021/12/10 04:46:33;;;;;;;149.73;73.93;;;;;;;-0.53;100.00;98148.06;5053634;28;20032;-84
2021/12/10 04:49:03;;;;;;;151.40;74.57;;;;;;;-0.51;100.00;98156.56;5054005;28;20027;-83
2021/12/10 04:51:33;;;;;;;153.93;76.07;;;;;;;-0.55;100.00;98148.97;5054049;28;20021;-84
2021/12/10 04:54:00;;;;;;;153.93;78.00;;;;;;;-0.62;100.00;98132.13;5053762;28;20033;-84
2021/12/10 04:56:27;;;;;;;148.93;75.13;;;;;;;-0.53;100.00;98139.56;5053439;28;20071;-83
2021/12/10 04:58:53;;;;;;;149.10;71.63;;;;;;;-0.49;100.00;98159.06;5053249;28;20029;-84
2021/12/10 05:01:19;;;;;;;151.32;73.15;;;;;;;-0.55;100.00;98146.41;5053449;28;20063;-84
2021/12/10 05:03:44;;;;;;;150.18;74.00;;;;;;;-0.56;100.00;98163.47;5054354;28;20055;-86
2021/12/10 05:06:10;;;;;;;158.27;71.93;;;;;;;-0.59;100.00;98170.38;5071919;28;20024;-86
2021/12/10 05:08:37;;;;;;;155.13;69.40;;;;;;;-0.66;100.00;98159.50;5053538;28;20119;-84
2021/12/10 05:11:05;;;;;;;148.13;73.53;;;;;;;-0.53;100.00;98177.91;5053285;28;20017;-86
2021/12/10 05:13:31;;;;;;;151.00;72.85;;;;;;;-0.57;100.00;98172.03;5074698;28;20467;-85
2021/12/10 05:15:58;;;;;;;166.43;79.18;;;;;;;-0.58;100.00;98177.19;5071695;28;20051;-83
2021/12/10 05:18:30;;;;;;;164.60;76.57;;;;;;;-0.57;100.00;98176.31;5055657;28;20112;-86
2021/12/10 05:20:57;;;;;;;161.63;77.80;;;;;;;-0.64;100.00;98165.38;4995494;28;20148;-82
2021/12/10 05:23:23;;;;;;;173.73;82.00;;;;;;;-0.62;100.00;98173.88;4996566;28;20157;-82
2021/12/10 05:25:50;;;;;;;169.75;84.03;;;;;;;-0.66;100.00;98168.88;5012836;28;20175;-81
2021/12/10 05:28:17;;;;;;;171.35;81.65;;;;;;;-0.59;100.00;98172.94;4996122;28;20111;-81
2021/12/10 05:30:43;;;;;;;176.93;80.28;;;;;;;-0.58;100.00;98164.41;4996149;28;20049;-81
2021/12/10 05:33:15;;;;;;;173.75;78.68;;;;;;;-0.59;100.00;98145.69;5012777;28;20461;-80
2021/12/10 05:35:40;;;;;;;184.52;82.55;;;;;;;-0.81;100.00;98118.97;5013023;28;20092;-81
2021/12/10 05:38:06;;;;;;;188.55;86.15;;;;;;;-0.62;100.00;98150.03;5012700;28;20026;-81
2021/12/10 05:40:31;;;;;;;186.57;86.18;;;;;;;-0.59;100.00;98148.25;4996609;28;20529;-81
2021/12/10 05:42:57;;;;;;;176.18;82.38;;;;;;;-0.61;100.00;98138.91;5012910;28;20432;-81
2021/12/10 05:45:23;;;;;;;183.35;81.65;;;;;;;-0.59;100.00;98145.69;4996300;28;20061;-81
2021/12/10 05:47:49;;;;;;;174.57;79.35;;;;;;;-0.65;100.00;98142.44;4995983;28;20477;-82
2021/12/10 05:50:17;;;;;;;215.05;105.38;;;;;;;-0.62;100.00;98148.31;5012699;28;20041;-81
2021/12/10 05:52:43;;;;;;;407.55;168.95;;;;;;;-0.59;100.00;98148.25;5046764;28;20135;-81
2021/12/10 05:55:10;;;;;;;277.35;114.35;;;;;;;-0.58;100.00;98152.47;5074545;28;20462;-81
2021/12/10 05:57:35;;;;;;;224.07;92.10;;;;;;;-0.66;100.00;98131.38;5056552;28;20115;-81
2021/12/10 06:00:02;;;;;;;165.68;76.18;;;;;;;-0.62;100.00;98138.09;5074659;28;20116;-81
2021/12/10 06:02:27;;;;;;;188.70;86.30;;;;;;;-0.65;100.00;98145.00;5057017;28;20131;-82
2021/12/10 06:04:52;;;;;;;166.73;78.32;;;;;;;-0.73;100.00;98123.88;5074675;28;20032;-81
2021/12/10 06:07:18;;;;;;;173.85;78.88;;;;;;;-0.66;100.00;98144.16;5074842;28;20032;-81
2021/12/10 06:09:44;;;;;;;164.43;79.22;;;;;;;-0.65;100.00;98148.38;5056744;28;20486;-81
2021/12/10 06:12:10;;;;;;;180.88;81.80;;;;;;;-0.64;100.00;98149.22;5074399;28;20021;-82
2021/12/10 06:14:35;;;;;;;305.63;127.38;;;;;;;-0.81;100.00;98119.81;5074704;28;20036;-82
2021/12/10 06:17:01;;;;;;;268.35;108.20;;;;;;;-0.65;100.00;98153.50;5074289;28;20090;-82
2021/12/10 06:19:26;;;;;;;177.35;82.85;;;;;;;-0.67;100.00;98155.25;5074627;28;20028;-81
2021/12/10 06:21:53;;;;;;;175.38;82.88;;;;;;;-0.66;100.00;98162.06;5074584;28;20062;-82
2021/12/10 06:24:19;;;;;;;174.63;85.40;;;;;;;-0.61;100.00;98172.16;5074261;28;20031;-82
2021/12/10 06:26:44;;;;;;;159.55;80.22;;;;;;;-0.74;100.00;98153.72;5056385;28;20035;-82
2021/12/10 06:29:10;;;;;;;174.32;84.32;;;;;;;-0.66;100.00;98161.22;5074318;28;20028;-82
2021/12/10 06:31:36;;;;;;;165.43;81.10;;;;;;;-0.64;100.00;98170.50;5074453;28;20024;-82
2021/12/10 06:34:02;;;;;;;157.25;77.43;;;;;;;-0.73;100.00;98155.41;5074131;28;20028;-81
2021/12/10 06:36:29;;;;;;;171.60;78.75;;;;;;;-0.66;100.00;98161.22;5056250;28;20589;-81
2021/12/10 06:38:55;;;;;;;167.13;80.22;;;;;;;-0.77;100.00;98146.97;5074042;28;20051;-85
2021/12/10 06:41:21;;;;;;;161.07;77.38;;;;;;;-0.85;100.00;98130.16;5056630;28;20063;-89
2021/12/10 06:43:47;;;;;;;166.23;80.45;;;;;;;-0.73;100.00;98146.91;5050075;28;20500;-89
2021/12/10 06:46:13;;;;;;;166.48;81.03;;;;;;;-0.65;100.00;98155.22;5045368;28;20051;-88
2021/12/10 06:48:39;;;;;;;186.68;83.50;;;;;;;-0.62;100.00;98155.16;5016152;28;20038;-88
2021/12/10 06:51:10;;;;;;;163.32;82.03;;;;;;;-0.72;100.00;98143.47;5007767;28;20730;-84
2021/12/10 06:53:38;;;;;;;166.10;75.60;;;;;;;-0.71;100.00;98152.81;5004963;28;20124;-85
2021/12/10 06:56:04;;;;;;;152.02;75.97;;;;;;;-0.69;100.00;98161.28;5001770;28;20026;-89
2021/12/10 06:58:33;;;;;;;159.85;79.53;;;;;;;-0.68;100.00;98160.41;5019252;28;20125;-86
2021/12/10 07:01:11;;;;;;;163.20;77.80;;;;;;;-0.77;100.00;98139.28;5006909;28;20129;-88
2021/12/10 07:03:37;;;;;;;166.63;80.18;;;;;;;-0.73;100.00;98146.91;5004078;28;20038;-85
2021/12/10 07:06:05;;;;;;;152.82;74.63;;;;;;;-0.86;100.00;98123.38;5001137;28;20154;-86
2021/12/10 07:08:34;;;;;;;159.95;75.18;;;;;;;-0.74;100.00;98145.22;5002745;28;20141;-86
2021/12/10 07:11:00;;;;;;;171.30;83.22;;;;;;;-0.83;100.00;98134.34;5011204;28;20056;-87
2021/12/10 07:13:27;;;;;;;145.90;76.82;;;;;;;-0.70;100.00;98154.50;5011386;28;20128;-87
2021/12/10 07:15:53;;;;;;;153.65;73.78;;;;;;;-0.78;100.00;98141.91;4971866;28;20094;-87
2021/12/10 07:18:19;;;;;;;157.48;79.45;;;;;;;-0.87;100.00;98137.03;4956251;28;20465;-87
2021/12/10 07:20:46;;;;;;;143.20;73.35;;;;;;;-0.72;100.00;98157.06;4974800;28;20656;-87
2021/12/10 07:23:14;;;;;;;148.25;71.78;;;;;;;-0.70;100.00;98155.34;4992072;28;20065;-88
2021/12/10 07:25:41;;;;;;;165.82;77.55;;;;;;;-0.68;100.00;98157.84;4991977;28;20038;-86
2021/12/10 07:28:06;;;;;;;147.35;73.13;;;;;;;-0.70;100.00;98163.00;4991613;28;20470;-87
2021/12/10 07:30:33;;;;;;;146.05;74.07;;;;;;;-0.72;100.00;98157.06;4991506;28;20073;-86
2021/12/10 07:32:58;;;;;;;143.52;72.20;;;;;;;-0.67;100.00;98168.03;4991636;28;20092;-87
2021/12/10 07:35:24;;;;;;;146.73;72.25;;;;;;;-0.67;100.00;98157.81;4990676;28;20125;-86
2021/12/10 07:37:50;;;;;;;152.18;74.80;;;;;;;-0.65;100.00;98168.00;4990859;28;20121;-87
2021/12/10 07:40:19;;;;;;;152.60;74.53;;;;;;;-0.74;100.00;98156.28;4991331;28;20045;-86
2021/12/10 07:42:44;;;;;;;146.68;73.00;;;;;;;-0.73;100.00;98154.56;4991326;28;20030;-87
2021/12/10 07:45:13;;;;;;;151.50;70.47;;;;;;;-0.77;100.00;98157.19;4991090;28;20041;-86
2021/12/10 07:47:39;;;;;;;154.13;78.18;;;;;;;-0.65;100.00;98166.28;5024546;28;20071;-87
2021/12/10 07:50:10;;;;;;;148.05;72.97;;;;;;;-0.66;100.00;98164.59;5034598;28;20029;-88
2021/12/10 07:52:37;;;;;;;145.55;70.88;;;;;;;-0.86;100.00;98134.41;5053060;28;20112;-84
2021/12/10 07:55:10;;;;;;;144.10;71.32;;;;;;;-0.66;100.00;98156.94;5034713;28;20029;-85
2021/12/10 07:57:36;;;;;;;136.90;71.80;;;;;;;-0.69;100.00;98143.38;5035026;28;20021;-84
2021/12/10 08:00:07;;;;;;;149.18;74.57;;;;;;;-0.55;100.00;98156.66;5030100;28;20037;-84
2021/12/10 08:02:32;;;;;;;151.63;76.43;;;;;;;-0.61;100.00;98152.53;5028078;28;20140;-84
2021/12/10 08:04:58;;;;;;;153.32;79.63;;;;;;;-0.52;100.00;98161.69;5030024;28;20685;-85
2021/12/10 08:07:25;;;;;;;151.05;81.50;;;;;;;-0.66;100.00;98140.75;5010442;28;20037;-84
2021/12/10 08:09:51;;;;;;;161.25;83.65;;;;;;;-0.64;100.00;98142.38;4993784;28;20176;-85
2021/12/10 08:12:17;;;;;;;146.63;74.93;;;;;;;-0.68;100.00;98132.28;5010482;28;20042;-86
2021/12/10 08:14:47;;;;;;;146.13;72.93;;;;;;;-0.56;100.00;98147.31;4993809;28;20042;-85
2021/12/10 08:17:13;;;;;;;150.10;75.82;;;;;;;-0.56;100.00;98132.78;4992335;28;20489;-86
2021/12/10 08:19:39;;;;;;;149.40;75.97;;;;;;;-0.41;100.00;98149.47;4993607;28;20092;-85
2021/12/10 08:22:05;;;;;;;143.70;74.30;;;;;;;-0.49;100.00;98136.03;4993686;28;20512;-85
2021/12/10 08:24:30;;;;;;;169.40;83.20;;;;;;;-0.39;100.00;98140.03;5010151;28;20030;-85
2021/12/10 08:26:56;;;;;;;150.52;77.63;;;;;;;-0.39;100.00;98139.19;4995369;28;20049;-84
2021/12/10 08:29:25;;;;;;;149.45;76.00;;;;;;;-0.45;100.00;98122.28;5018737;28;20033;-87
2021/12/10 08:31:50;;;;;;;132.52;68.13;;;;;;;-0.33;100.00;98131.38;5005172;28;20037;-87
2021/12/10 08:34:16;;;;;;;147.93;78.47;;;;;;;-0.34;100.00;98139.91;5029563;28;20362;-87
2021/12/10 08:36:41;;;;;;;147.57;76.82;;;;;;;-0.35;100.00;98144.16;5029402;28;20057;-87
2021/12/10 08:39:09;;;;;;;149.85;73.85;;;;;;;-0.16;100.00;98164.16;5033528;28;20036;-86
2021/12/10 08:41:35;;;;;;;150.45;78.35;;;;;;;-0.16;100.00;98162.44;5033842;28;20025;-87
2021/12/10 08:44:02;;;;;;;146.88;76.47;;;;;;;-0.16;100.00;98159.88;5040834;28;20086;-86
2021/12/10 08:46:29;;;;;;;156.15;79.57;;;;;;;-0.26;100.00;98150.75;5053234;28;20029;-86
2021/12/10 08:48:58;;;;;;;149.82;78.03;;;;;;;-0.28;100.00;98160.22;5053256;28;20028;-87
2021/12/10 08:51:38;;;;;;;150.57;74.50;;;;;;;-0.30;100.00;98160.22;5054521;28;20487;-89
2021/12/10 08:54:05;;;;;;;155.30;76.20;;;;;;;-0.35;100.00;98151.84;5054048;28;20048;-89
2021/12/10 08:56:31;;;;;;;161.05;81.88;;;;;;;-0.34;100.00;98155.25;5054048;28;20036;-89
2021/12/10 08:58:57;;;;;;;148.30;70.22;;;;;;;-0.24;100.00;98159.25;5071762;28;20029;-88
2021/12/10 09:01:27;;;;;;;150.48;75.78;;;;;;;-0.23;100.00;98148.13;5044411;28;20083;-88
2021/12/10 09:03:55;;;;;;;142.80;74.07;;;;;;;-0.29;100.00;98131.22;5052104;28;20052;-89
2021/12/10 09:06:24;;;;;;;154.93;77.63;;;;;;;-0.11;100.00;98146.97;5034175;28;20071;-88
2021/12/10 09:08:49;;;;;;;145.32;75.13;;;;;;;-0.03;100.00;98152.69;4993021;28;20476;-88
2021/12/10 09:11:16;;;;;;;134.32;70.97;;;;;;;-0.07;100.00;98140.88;4993571;28;20137;-89
2021/12/10 09:13:42;;;;;;;141.27;74.13;;;;;;;-0.03;100.00;98139.91;4993935;28;20038;-89
2021/12/10 09:16:18;;;;;;;136.07;68.55;;;;;;;0.04;100.00;98149.06;4994027;28;20080;-89
2021/12/10 09:18:44;;;;;;;127.57;65.00;;;;;;;0.01;100.00;98130.44;4994185;28;20042;-89
2021/12/10 09:21:10;;;;;;;126.35;66.30;;;;;;;0.14;100.00;98144.53;4994114;28;20160;-89
2021/12/10 09:23:36;;;;;;;120.30;65.45;;;;;;;0.21;100.00;98138.34;4994191;28;20088;-89
2021/12/10 09:26:08;;;;;;;119.97;62.20;;;;;;;0.29;100.00;98153.50;4993506;28;20033;-83
2021/12/10 09:28:35;;;;;;;117.55;63.55;;;;;;;0.29;100.00;98146.66;4992811;28;20081;-83
2021/12/10 09:31:01;;;;;;;122.50;67.35;;;;;;;0.19;100.00;98150.38;5009515;28;20036;-83
2021/12/10 09:33:28;;;;;;;122.93;63.03;;;;;;;0.05;100.00;98132.03;4992835;28;20026;-82
2021/12/10 09:35:54;;;;;;;120.65;62.53;;;;;;;0.21;100.00;98141.78;5005140;28;20029;-82
2021/12/10 09:38:21;;;;;;;117.22;63.95;;;;;;;0.22;100.00;98132.38;5029026;28;20032;-83
2021/12/10 09:40:52;;;;;;;122.90;66.63;;;;;;;0.25;100.00;98111.78;5048699;28;20032;-82
2021/12/10 09:43:19;;;;;;;112.45;62.03;;;;;;;0.33;100.00;98125.19;4992494;28;20072;-83
2021/12/10 09:45:45;;;;;;;107.32;60.33;;;;;;;0.45;100.00;98129.94;5009234;28;20042;-83
2021/12/10 09:48:15;;;;;;;111.93;60.65;;;;;;;0.53;100.00;98121.19;5009130;28;20042;-84
2021/12/10 09:50:54;;;;;;;111.63;56.47;;;;;;;0.62;100.00;98115.78;4992727;28;20038;-83
2021/12/10 09:53:20;;;;;;;103.97;54.60;;;;;;;0.64;100.00;98112.31;4992613;28;20070;-83
2021/12/10 09:55:47;;;;;;;96.88;54.08;;;;;;;0.62;100.00;98119.19;5008941;28;20026;-84
2021/12/10 09:58:13;;;;;;;99.68;55.75;;;;;;;0.60;100.00;98120.97;5009492;28;20041;-84
2021/12/10 10:00:48;;;;;;;107.78;59.65;;;;;;;0.56;100.00;98124.50;5012706;28;20401;-85
2021/12/10 10:03:17;;;;;;;113.55;61.42;;;;;;;0.47;100.00;98100.00;4996208;28;20121;-82
2021/12/10 10:05:45;;;;;;;119.10;62.05;;;;;;;0.43;100.00;98097.59;4995908;28;20033;-83
2021/12/10 10:08:14;;;;;;;115.13;59.47;;;;;;;0.56;100.00;98119.38;5012439;28;20045;-82
2021/12/10 10:10:48;;;;;;;108.68;58.70;;;;;;;0.50;100.00;98122.94;4996039;28;20430;-84
2021/12/10 10:13:16;;;;;;;107.38;62.10;;;;;;;0.42;100.00;98104.44;5017229;28;20033;-83
2021/12/10 10:15:43;;;;;;;111.40;60.58;;;;;;;0.55;100.00;98117.72;5074399;28;20025;-83
2021/12/10 10:18:11;;;;;;;109.15;57.15;;;;;;;0.62;100.00;98120.91;5056057;28;20532;-83
2021/12/10 10:20:47;;;;;;;113.80;59.90;;;;;;;0.65;100.00;98121.66;5074623;28;20039;-83
2021/12/10 10:23:13;;;;;;;108.25;59.45;;;;;;;0.50;100.00;98092.22;5056571;28;20043;-84
2021/12/10 10:25:43;;;;;;;109.88;57.55;;;;;;;0.80;100.00;98130.59;5056425;28;20396;-83
2021/12/10 10:28:11;;;;;;;106.60;56.63;;;;;;;0.80;100.00;98111.78;5056158;28;20028;-83
2021/12/10 10:30:41;;;;;;;114.50;61.60;;;;;;;0.79;100.00;98098.16;5074119;28;20028;-83
2021/12/10 10:33:09;;;;;;;114.03;61.95;;;;;;;0.79;100.00;98100.72;5074516;28;20031;-83
2021/12/10 10:35:41;;;;;;;110.45;59.65;;;;;;;0.82;100.00;98108.31;5018615;28;20120;-83
2021/12/10 10:38:08;;;;;;;111.38;60.95;;;;;;;0.85;100.00;98112.50;5053917;28;20114;-83
2021/12/10 10:40:38;;;;;;;111.75;58.88;;;;;;;0.83;100.00;98093.75;5054090;28;20033;-84
2021/12/10 10:43:04;;;;;;;106.72;58.25;;;;;;;0.84;100.00;98092.88;5053742;28;20488;-84
2021/12/10 10:45:32;;;;;;;109.30;59.78;;;;;;;0.82;100.00;98086.97;5036246;28;20118;-83
2021/12/10 10:48:02;;;;;;;105.25;56.47;;;;;;;0.94;100.00;98110.47;5035621;28;20029;-84
2021/12/10 10:50:34;;;;;;;95.78;54.67;;;;;;;0.86;100.00;98104.75;5036447;28;20029;-84
2021/12/10 10:53:07;;;;;;;108.63;58.55;;;;;;;0.87;100.00;98095.34;5036140;28;20400;-83
2021/12/10 10:55:36;;;;;;;104.20;55.83;;;;;;;0.85;100.00;98094.56;5020109;28;20071;-84
2021/12/10 10:58:25;;;;;;;100.78;53.95;;;;;;;0.88;100.00;98102.97;5052035;28;20024;-83
2021/12/10 11:01:07;;;;;;;98.95;55.78;;;;;;;0.95;100.00;98114.72;5031049;28;20036;-83
2021/12/10 11:04:00;;;;;;;101.78;54.80;;;;;;;0.92;100.00;98104.56;5035766;28;20020;-83
2021/12/10 11:06:31;;;;;;;88.75;49.85;;;;;;;0.92;100.00;98104.56;4991851;28;20045;-82
2021/12/10 11:09:14;;;;;;;90.40;50.20;;;;;;;0.99;100.00;98112.88;4991735;28;20038;-82
2021/12/10 11:11:49;;;;;;;97.75;54.28;;;;;;;0.97;100.00;98102.69;4991022;28;20046;-83
2021/12/10 11:14:21;;;;;;;94.15;51.47;;;;;;;0.91;100.00;98087.50;4991584;28;20030;-83
2021/12/10 11:16:49;;;;;;;98.70;56.00;;;;;;;0.89;100.00;98085.91;4974855;28;20158;-83
2021/12/10 11:19:20;;;;;;;86.22;48.25;;;;;;;0.92;100.00;98088.34;4991760;28;20032;-83
2021/12/10 11:21:48;;;;;;;102.03;51.80;;;;;;;0.95;100.00;98094.22;4991493;28;20120;-83